createdAt,value
2019-04-06T00:01:58.219Z,99.90
2019-04-06T00:04:26.634Z,99.90
2019-04-06T00:06:55.051Z,99.90
2019-04-06T00:09:23.451Z,99.90
2019-04-06T00:11:51.873Z,99.90
2019-04-06T00:14:20.272Z,99.90
2019-04-06T00:16:48.700Z,99.90
2019-04-06T00:19:17.101Z,99.90
2019-04-06T00:21:45.532Z,99.90
2019-04-06T00:24:13.941Z,99.90
2019-04-06T00:26:42.385Z,99.90
2019-04-06T00:29:10.784Z,99.90
2019-04-06T00:31:46.748Z,99.90
2019-04-06T00:34:15.153Z,99.90
2019-04-06T00:36:43.587Z,99.90
2019-04-06T00:39:12.009Z,99.90
2019-04-06T00:41:40.484Z,99.90
2019-04-06T00:44:08.884Z,99.90
2019-04-06T00:46:37.349Z,99.90
2019-04-06T00:49:05.844Z,99.90
2019-04-06T00:51:34.272Z,99.90
2019-04-06T00:54:02.768Z,99.90
2019-04-06T00:56:31.216Z,99.90
2019-04-06T00:58:59.644Z,99.90
2019-04-06T01:01:28.067Z,99.90
2019-04-06T01:03:56.480Z,99.90
2019-04-06T01:06:24.900Z,99.90
2019-04-06T01:08:53.321Z,99.90
2019-04-06T01:11:21.835Z,99.90
2019-04-06T01:13:50.228Z,99.90
2019-04-06T01:16:18.702Z,99.90
2019-04-06T01:18:47.126Z,99.90
2019-04-06T01:21:15.547Z,99.90
2019-04-06T01:23:43.951Z,99.90
2019-04-06T01:26:12.347Z,99.90
2019-04-06T01:28:40.764Z,99.90
2019-04-06T01:31:09.182Z,99.90
2019-04-06T01:33:37.607Z,99.90
2019-04-06T01:36:06.102Z,99.90
2019-04-06T01:38:34.555Z,99.90
2019-04-06T01:41:02.978Z,99.90
2019-04-06T01:43:31.404Z,99.90
2019-04-06T01:45:59.808Z,99.90
2019-04-06T01:48:28.222Z,99.90
2019-04-06T01:50:56.929Z,99.90
2019-04-06T01:53:25.491Z,99.90
2019-04-06T01:55:53.899Z,99.90
2019-04-06T01:58:22.336Z,99.90
2019-04-06T02:00:55.331Z,99.90
2019-04-06T02:03:23.755Z,99.90
2019-04-06T02:05:52.159Z,99.90
2019-04-06T02:08:20.609Z,99.90
2019-04-06T02:10:49.085Z,99.90
2019-04-06T02:13:17.621Z,99.90
2019-04-06T02:15:46.318Z,99.90
2019-04-06T02:18:14.727Z,99.90
2019-04-06T02:20:43.149Z,99.90
2019-04-06T02:23:11.559Z,99.90
2019-04-06T02:25:39.997Z,99.90
2019-04-06T02:28:08.400Z,99.90
2019-04-06T02:30:44.293Z,99.90
2019-04-06T02:33:20.200Z,99.90
2019-04-06T02:35:55.949Z,99.90
2019-04-06T02:38:34.876Z,99.90
2019-04-06T02:41:05.615Z,99.90
2019-04-06T02:43:35.746Z,99.90
2019-04-06T02:46:04.425Z,99.90
2019-04-06T02:48:32.841Z,99.90
2019-04-06T02:51:01.283Z,99.90
2019-04-06T02:53:29.882Z,99.90
2019-04-06T02:55:58.395Z,99.90
2019-04-06T02:58:26.852Z,99.90
2019-04-06T03:00:55.343Z,99.90
2019-04-06T03:03:23.751Z,99.90
2019-04-06T03:05:52.180Z,99.90
2019-04-06T03:08:20.597Z,99.90
2019-04-06T03:10:49.004Z,99.90
2019-04-06T03:13:17.511Z,99.90
2019-04-06T03:15:45.923Z,99.90
2019-04-06T03:18:14.351Z,99.90
2019-04-06T03:20:42.761Z,99.90
2019-04-06T03:23:11.197Z,99.90
2019-04-06T03:25:39.672Z,99.90
2019-04-06T03:28:08.103Z,99.90
2019-04-06T03:30:37.053Z,99.90
2019-04-06T03:33:05.826Z,99.90
2019-04-06T03:35:34.293Z,99.90
2019-04-06T03:38:02.802Z,99.90
2019-04-06T03:40:31.281Z,99.90
2019-04-06T03:42:59.723Z,99.90
2019-04-06T03:45:28.260Z,99.90
2019-04-06T03:47:56.990Z,99.90
2019-04-06T03:50:25.563Z,99.90
2019-04-06T03:52:54.072Z,99.90
2019-04-06T03:55:22.599Z,99.90
2019-04-06T03:57:51.111Z,99.90
2019-04-06T04:00:19.597Z,99.90
2019-04-06T04:02:48.018Z,99.90
2019-04-06T04:05:16.432Z,99.90
2019-04-06T04:07:44.830Z,99.90
2019-04-06T04:10:16.355Z,99.90
2019-04-06T04:12:44.759Z,99.90
2019-04-06T04:15:13.183Z,99.90
2019-04-06T04:17:41.586Z,99.90
2019-04-06T04:20:10.066Z,99.90
2019-04-06T04:22:38.499Z,99.90
2019-04-06T04:25:07.075Z,99.90
2019-04-06T04:27:35.591Z,99.90
2019-04-06T04:30:06.656Z,99.90
2019-04-06T04:32:35.112Z,99.90
2019-04-06T04:35:04.282Z,99.90
2019-04-06T04:37:32.759Z,99.90
2019-04-06T04:40:01.213Z,99.90
2019-04-06T04:42:29.619Z,99.90
2019-04-06T04:44:58.122Z,99.90
2019-04-06T04:47:26.519Z,99.90
2019-04-06T04:49:54.950Z,99.90
2019-04-06T04:52:23.357Z,99.90
2019-04-06T04:54:51.786Z,99.90
2019-04-06T04:57:20.379Z,99.90
2019-04-06T04:59:48.880Z,99.90
2019-04-06T05:02:17.289Z,99.90
2019-04-06T05:04:45.731Z,99.90
2019-04-06T05:07:14.275Z,99.90
2019-04-06T05:09:42.815Z,99.90
2019-04-06T05:12:11.223Z,99.90
2019-04-06T05:14:59.607Z,99.90
2019-04-06T05:17:28.087Z,99.90
2019-04-06T05:19:56.699Z,99.90
2019-04-06T05:22:25.169Z,99.90
2019-04-06T05:24:53.659Z,99.90
2019-04-06T05:27:22.576Z,99.90
2019-04-06T05:29:51.030Z,99.90
2019-04-06T05:32:19.440Z,99.90
2019-04-06T05:34:47.860Z,99.90
2019-04-06T05:37:16.264Z,99.90
2019-04-06T05:39:44.727Z,99.90
2019-04-06T05:42:13.115Z,99.90
2019-04-06T05:44:41.531Z,99.90
2019-04-06T05:47:09.939Z,99.90
2019-04-06T05:49:38.372Z,99.90
2019-04-06T05:52:07.844Z,99.90
2019-04-06T05:54:36.261Z,99.90
2019-04-06T05:57:05.139Z,99.90
2019-04-06T05:59:33.530Z,99.90
2019-04-06T06:02:01.962Z,99.90
2019-04-06T06:04:30.452Z,99.90
2019-04-06T06:06:58.873Z,99.90
2019-04-06T06:09:27.278Z,99.90
2019-04-06T06:11:56.098Z,99.90
2019-04-06T06:14:24.712Z,99.90
2019-04-06T06:16:53.191Z,99.90
2019-04-06T06:19:21.639Z,99.90
2019-04-06T06:21:50.087Z,99.90
2019-04-06T06:24:18.603Z,99.90
2019-04-06T06:26:47.119Z,99.90
2019-04-06T06:29:15.719Z,99.90
2019-04-06T06:31:44.270Z,99.90
2019-04-06T06:34:12.852Z,99.90
2019-04-06T06:36:41.389Z,99.90
2019-04-06T06:39:10.357Z,99.90
2019-04-06T06:41:38.851Z,99.90
2019-04-06T06:44:07.262Z,99.90
2019-04-06T06:46:35.725Z,99.90
2019-04-06T06:49:04.335Z,99.90
2019-04-06T06:51:32.855Z,99.90
2019-04-06T06:54:01.278Z,99.90
2019-04-06T06:56:29.703Z,99.90
2019-04-06T06:58:58.134Z,99.90
2019-04-06T07:01:26.650Z,99.90
2019-04-06T07:03:55.040Z,99.90
2019-04-06T07:06:23.697Z,99.90
2019-04-06T07:08:52.403Z,99.90
2019-04-06T07:11:20.955Z,99.90
2019-04-06T07:13:49.436Z,99.90
2019-04-06T07:16:17.861Z,99.90
2019-04-06T07:18:46.279Z,99.90
2019-04-06T07:21:16.644Z,99.90
2019-04-06T07:23:44.823Z,99.90
2019-04-06T07:26:13.240Z,99.90
2019-04-06T07:28:41.651Z,99.90
2019-04-06T07:31:10.090Z,99.90
2019-04-06T07:33:38.493Z,99.90
2019-04-06T07:36:06.894Z,99.90
2019-04-06T07:38:37.741Z,99.90
2019-04-06T07:41:05.452Z,99.90
2019-04-06T07:43:33.875Z,99.90
2019-04-06T07:46:02.285Z,99.90
2019-04-06T07:48:30.691Z,99.90
2019-04-06T07:50:59.346Z,99.90
2019-04-06T07:53:27.888Z,98.60
2019-04-06T07:55:56.360Z,98.60
2019-04-06T07:58:24.825Z,97.20
2019-04-06T08:00:53.328Z,96.70
2019-04-06T08:03:21.751Z,96.50
2019-04-06T08:05:50.165Z,96.50
2019-04-06T08:08:18.570Z,95.30
2019-04-06T08:10:46.987Z,94.70
2019-04-06T08:13:15.425Z,92.50
2019-04-06T08:15:43.868Z,92.20
2019-04-06T08:18:12.295Z,92.50
2019-04-06T08:20:40.714Z,93.60
2019-04-06T08:23:09.111Z,92.40
2019-04-06T08:25:37.589Z,90.60
2019-04-06T08:28:06.069Z,91.60
2019-04-06T08:30:44.680Z,91.20
2019-04-06T08:33:04.676Z,91.60
2019-04-06T08:35:33.139Z,91.60
2019-04-06T08:38:01.655Z,89.10
2019-04-06T08:40:30.072Z,86.10
2019-04-06T08:42:58.765Z,87.90
2019-04-06T08:45:27.182Z,90.70
2019-04-06T08:47:55.587Z,85.00
2019-04-06T08:50:24.004Z,85.90
2019-04-06T08:52:52.424Z,85.20
2019-04-06T08:55:20.879Z,80.90
2019-04-06T08:57:49.275Z,80.20
2019-04-06T09:00:18.053Z,79.50
2019-04-06T09:02:46.455Z,79.30
2019-04-06T09:05:15.010Z,76.40
2019-04-06T09:07:43.457Z,75.20
2019-04-06T09:10:12.274Z,77.00
2019-04-06T09:12:40.684Z,77.80
2019-04-06T09:15:09.998Z,75.60
2019-04-06T09:17:38.459Z,72.40
2019-04-06T09:20:08.085Z,64.90
2019-04-06T09:22:36.700Z,65.10
2019-04-06T09:25:06.553Z,63.10
2019-04-06T09:27:35.161Z,65.10
2019-04-06T09:30:04.853Z,62.30
2019-04-06T09:32:33.367Z,58.70
2019-04-06T09:35:01.824Z,58.80
2019-04-06T09:37:30.258Z,59.10
2019-04-06T09:39:58.689Z,56.50
2019-04-06T09:42:27.320Z,56.50
2019-04-06T09:45:03.160Z,54.50
2019-04-06T09:47:49.475Z,54.10
2019-04-06T09:50:28.818Z,49.50
2019-04-06T09:53:04.768Z,47.40
2019-04-06T09:55:49.833Z,46.60
2019-04-06T09:58:31.949Z,44.30
2019-04-06T10:01:18.446Z,42.90
2019-04-06T10:03:48.486Z,42.40
2019-04-06T10:06:27.941Z,41.50
2019-04-06T10:09:14.141Z,40.80
2019-04-06T10:11:50.058Z,39.50
2019-04-06T10:14:20.159Z,38.60
2019-04-06T10:17:08.611Z,38.40
2019-04-06T10:19:38.712Z,39.00
2019-04-06T10:22:17.603Z,40.20
2019-04-06T10:24:53.656Z,40.60
2019-04-06T10:27:26.688Z,39.70
2019-04-06T10:30:08.239Z,41.10
2019-04-06T10:32:41.262Z,39.80
2019-04-06T10:35:11.403Z,39.80
2019-04-06T10:37:44.335Z,39.80
2019-04-06T10:40:30.999Z,39.60
2019-04-06T10:43:04.013Z,41.10
2019-04-06T10:45:50.104Z,43.00
2019-04-06T10:48:35.864Z,43.50
2019-04-06T10:51:06.055Z,42.70
2019-04-06T10:53:41.766Z,42.30
2019-04-06T10:56:11.978Z,42.40
2019-04-06T10:58:44.992Z,42.70
2019-04-06T11:01:31.552Z,41.10
2019-04-06T11:04:01.621Z,40.10
2019-04-06T11:06:43.744Z,40.60
2019-04-06T11:09:25.747Z,40.00
2019-04-06T11:11:55.837Z,39.10
2019-04-06T11:14:27.799Z,40.90
2019-04-06T11:16:57.971Z,39.50
2019-04-06T11:19:30.491Z,39.50
2019-04-06T11:22:17.215Z,39.50
2019-04-06T11:24:47.739Z,38.00
2019-04-06T11:27:23.779Z,38.50
2019-04-06T11:30:12.418Z,39.10
2019-04-06T11:32:50.056Z,38.40
2019-04-06T11:35:31.774Z,38.40
2019-04-06T11:38:16.880Z,38.90
2019-04-06T11:40:46.975Z,39.20
2019-04-06T11:43:28.974Z,39.40
2019-04-06T11:46:04.792Z,40.00
2019-04-06T11:48:34.998Z,38.00
2019-04-06T11:51:17.514Z,40.30
2019-04-06T11:54:02.659Z,39.70
2019-04-06T11:56:47.647Z,39.40
2019-04-06T11:59:17.751Z,41.30
2019-04-06T12:02:04.812Z,42.50
2019-04-06T12:04:35.031Z,40.40
2019-04-06T12:07:21.492Z,42.20
2019-04-06T12:09:54.884Z,42.80
2019-04-06T12:12:31.061Z,42.80
2019-04-06T12:15:19.469Z,41.50
2019-04-06T12:18:05.954Z,42.80
2019-04-06T12:20:45.025Z,41.40
2019-04-06T12:23:33.836Z,41.30
2019-04-06T12:26:04.147Z,41.40
2019-04-06T12:28:34.193Z,42.00
2019-04-06T12:31:04.326Z,44.30
2019-04-06T12:33:34.441Z,44.70
2019-04-06T12:36:07.243Z,43.80
2019-04-06T12:38:40.265Z,42.00
2019-04-06T12:41:28.860Z,43.40
2019-04-06T12:44:17.708Z,45.10
2019-04-06T12:46:59.614Z,45.00
2019-04-06T12:49:29.923Z,44.80
2019-04-06T12:52:18.467Z,46.40
2019-04-06T12:55:00.331Z,47.70
2019-04-06T12:57:30.450Z,48.60
2019-04-06T13:00:03.248Z,50.00
2019-04-06T13:02:36.328Z,51.60
2019-04-06T13:05:07.457Z,52.00
2019-04-06T13:07:37.839Z,52.10
2019-04-06T13:10:14.577Z,53.20
2019-04-06T13:12:44.773Z,53.80
2019-04-06T13:15:30.500Z,53.90
2019-04-06T13:18:12.875Z,53.80
2019-04-06T13:20:45.561Z,52.60
2019-04-06T13:23:24.723Z,54.50
2019-04-06T13:25:57.741Z,54.80
2019-04-06T13:28:27.875Z,54.10
2019-04-06T13:31:03.572Z,53.00
2019-04-06T13:33:34.543Z,54.30
2019-04-06T13:36:10.531Z,54.00
2019-04-06T13:38:40.595Z,55.10
2019-04-06T13:41:16.612Z,55.30
2019-04-06T13:43:46.732Z,55.70
2019-04-06T13:46:19.276Z,54.80
2019-04-06T13:49:04.440Z,54.30
2019-04-06T13:51:40.643Z,55.10
2019-04-06T13:54:27.156Z,55.30
2019-04-06T13:57:00.512Z,55.60
2019-04-06T13:59:36.588Z,55.10
2019-04-06T14:02:12.977Z,54.40
2019-04-06T14:04:59.692Z,54.70
2019-04-06T14:07:32.474Z,53.60
2019-04-06T14:10:02.537Z,56.20
2019-04-06T14:12:49.102Z,55.80
2019-04-06T14:15:19.291Z,57.50
2019-04-06T14:17:52.391Z,57.80
2019-04-06T14:20:38.984Z,58.20
2019-04-06T14:23:09.052Z,58.80
2019-04-06T14:25:53.257Z,58.50
2019-04-06T14:28:28.874Z,59.00
2019-04-06T14:30:59.174Z,61.10
2019-04-06T14:33:29.302Z,59.90
2019-04-06T14:35:59.386Z,60.10
2019-04-06T14:38:47.805Z,59.00
2019-04-06T14:41:20.887Z,62.00
2019-04-06T14:43:51.280Z,60.20
2019-04-06T14:46:37.943Z,56.80
2019-04-06T14:49:30.846Z,55.70
2019-04-06T14:51:59.000Z,56.90
2019-04-06T14:54:29.082Z,58.90
2019-04-06T14:57:01.585Z,60.20
2019-04-06T14:59:46.762Z,59.30
2019-04-06T15:02:19.676Z,59.10
2019-04-06T15:04:52.495Z,63.10
2019-04-06T15:07:37.926Z,65.00
2019-04-06T15:10:11.330Z,65.70
2019-04-06T15:12:58.206Z,68.50
2019-04-06T15:15:37.473Z,67.80
2019-04-06T15:18:24.000Z,67.60
2019-04-06T15:21:10.788Z,69.50
2019-04-06T15:23:52.781Z,67.60
2019-04-06T15:26:28.344Z,66.10
2019-04-06T15:29:00.423Z,67.80
2019-04-06T15:31:32.871Z,68.50
2019-04-06T15:34:15.147Z,69.40
2019-04-06T15:36:51.248Z,68.60
2019-04-06T15:39:21.650Z,68.40
2019-04-06T15:42:03.807Z,71.00
2019-04-06T15:44:48.982Z,71.00
2019-04-06T15:47:25.315Z,71.20
2019-04-06T15:49:55.812Z,69.70
2019-04-06T15:52:31.737Z,70.50
2019-04-06T15:55:01.774Z,72.20
2019-04-06T15:57:37.547Z,71.20
2019-04-06T16:00:16.961Z,69.80
2019-04-06T16:02:49.782Z,68.70
2019-04-06T16:05:25.927Z,68.20
2019-04-06T16:07:58.408Z,67.70
2019-04-06T16:10:44.727Z,69.60
2019-04-06T16:13:31.032Z,69.10
2019-04-06T16:16:01.156Z,69.10
2019-04-06T16:18:35.178Z,69.70
2019-04-06T16:21:14.471Z,69.80
2019-04-06T16:24:03.066Z,70.50
2019-04-06T16:26:31.087Z,71.40
2019-04-06T16:29:03.862Z,71.50
2019-04-06T16:31:50.348Z,71.40
2019-04-06T16:34:32.790Z,71.40
2019-04-06T16:37:08.720Z,71.00
2019-04-06T16:39:41.686Z,72.20
2019-04-06T16:42:12.114Z,72.80
2019-04-06T16:44:45.304Z,72.30
2019-04-06T16:47:18.138Z,73.00
2019-04-06T16:50:04.678Z,73.50
2019-04-06T16:52:43.709Z,73.40
2019-04-06T16:55:31.709Z,72.30
2019-04-06T16:58:17.716Z,72.70
2019-04-06T17:01:04.869Z,74.40
2019-04-06T17:03:37.637Z,74.90
2019-04-06T17:06:20.312Z,75.20
2019-04-06T17:08:56.619Z,76.00
2019-04-06T17:11:38.557Z,77.10
2019-04-06T17:14:14.745Z,77.50
2019-04-06T17:16:53.951Z,76.80
2019-04-06T17:19:40.562Z,76.60
2019-04-06T17:22:10.621Z,75.70
2019-04-06T17:24:56.999Z,76.30
2019-04-06T17:27:33.039Z,77.10
2019-04-06T17:30:05.787Z,77.30
2019-04-06T17:32:38.572Z,77.40
2019-04-06T17:35:26.524Z,77.30
2019-04-06T17:38:08.934Z,77.10
2019-04-06T17:40:39.051Z,78.30
2019-04-06T17:43:12.155Z,78.30
2019-04-06T17:45:42.592Z,78.40
2019-04-06T17:48:12.771Z,78.60
2019-04-06T17:50:45.651Z,79.00
2019-04-06T17:53:32.070Z,79.20
2019-04-06T17:56:05.092Z,78.90
2019-04-06T17:58:35.510Z,79.70
2019-04-06T18:01:06.045Z,80.50
2019-04-06T18:03:42.185Z,80.50
2019-04-06T18:06:12.396Z,80.60
2019-04-06T18:08:45.394Z,81.30
2019-04-06T18:11:30.808Z,81.10
2019-04-06T18:13:59.734Z,81.50
2019-04-06T18:16:30.057Z,81.50
2019-04-06T18:18:58.740Z,82.00
2019-04-06T18:21:27.223Z,81.80
2019-04-06T18:23:55.636Z,81.70
2019-04-06T18:26:24.037Z,81.60
2019-04-06T18:28:52.751Z,82.20
2019-04-06T18:31:32.347Z,82.00
2019-04-06T18:34:00.812Z,81.80
2019-04-06T18:36:30.876Z,81.60
2019-04-06T18:39:03.617Z,82.00
2019-04-06T18:41:32.083Z,82.40
2019-04-06T18:44:00.535Z,83.00
2019-04-06T18:46:29.241Z,83.00
2019-04-06T18:48:57.752Z,84.70
2019-04-06T18:51:26.198Z,84.50
2019-04-06T18:53:54.877Z,84.60
2019-04-06T18:56:23.373Z,85.10
2019-04-06T18:58:51.796Z,84.70
2019-04-06T19:01:20.366Z,84.10
2019-04-06T19:03:49.026Z,83.70
2019-04-06T19:06:17.856Z,84.80
2019-04-06T19:08:46.840Z,84.20
2019-04-06T19:11:15.408Z,84.90
2019-04-06T19:13:44.315Z,85.60
2019-04-06T19:16:12.923Z,86.60
2019-04-06T19:18:41.353Z,87.20
2019-04-06T19:21:09.770Z,87.80
2019-04-06T19:23:38.247Z,88.80
2019-04-06T19:26:06.695Z,88.50
2019-04-06T19:28:35.497Z,88.50
2019-04-06T19:31:04.589Z,88.70
2019-04-06T19:33:33.039Z,89.50
2019-04-06T19:36:01.452Z,90.40
2019-04-06T19:38:29.971Z,90.30
2019-04-06T19:40:58.621Z,90.70
2019-04-06T19:43:27.055Z,90.00
2019-04-06T19:45:55.473Z,90.50
2019-04-06T19:48:23.883Z,90.60
2019-04-06T19:50:52.375Z,90.40
2019-04-06T19:53:21.297Z,90.60
2019-04-06T19:55:49.927Z,90.60
2019-04-06T19:58:18.496Z,90.70
2019-04-06T20:00:46.979Z,91.30
2019-04-06T20:03:15.498Z,91.00
2019-04-06T20:05:43.958Z,91.20
2019-04-06T20:08:12.501Z,91.10
2019-04-06T20:10:40.973Z,91.40
2019-04-06T20:13:09.391Z,91.70
2019-04-06T20:15:37.791Z,91.00
2019-04-06T20:18:06.241Z,90.50
2019-04-06T20:20:34.657Z,90.40
2019-04-06T20:23:03.079Z,90.30
2019-04-06T20:25:31.905Z,91.00
2019-04-06T20:28:00.393Z,90.70
2019-04-06T20:30:28.779Z,90.60
2019-04-06T20:32:57.798Z,90.80
2019-04-06T20:35:26.723Z,91.20
2019-04-06T20:37:55.526Z,91.50
2019-04-06T20:40:24.309Z,91.90
2019-04-06T20:42:52.800Z,92.20
2019-04-06T20:45:21.274Z,92.50
2019-04-06T20:47:49.733Z,92.40
2019-04-06T20:50:18.190Z,92.60
2019-04-06T20:52:46.615Z,92.90
2019-04-06T20:55:15.438Z,93.20
2019-04-06T20:57:44.024Z,93.40
2019-04-06T21:00:12.867Z,93.10
2019-04-06T21:02:41.299Z,93.10
2019-04-06T21:05:09.952Z,93.10
2019-04-06T21:07:38.367Z,93.40
2019-04-06T21:10:08.895Z,93.70
2019-04-06T21:12:37.488Z,93.80
2019-04-06T21:15:16.980Z,93.20
2019-04-06T21:17:37.983Z,93.40
2019-04-06T21:20:08.034Z,93.90
2019-04-06T21:22:36.554Z,93.70
2019-04-06T21:25:06.967Z,93.50
2019-04-06T21:27:36.093Z,93.80
2019-04-06T21:30:07.061Z,94.00
2019-04-06T21:32:36.089Z,94.00
2019-04-06T21:35:08.301Z,94.20
2019-04-06T21:37:36.988Z,94.30
2019-04-06T21:40:06.651Z,94.60
2019-04-06T21:42:35.468Z,94.80
2019-04-06T21:45:06.319Z,94.60
2019-04-06T21:47:35.280Z,94.50
2019-04-06T21:50:06.030Z,94.50
2019-04-06T21:52:34.463Z,94.70
2019-04-06T21:55:02.925Z,93.80
2019-04-06T21:57:31.349Z,94.20
2019-04-06T22:00:00.819Z,94.50
2019-04-06T22:02:29.586Z,94.40
2019-04-06T22:04:58.157Z,94.80
2019-04-06T22:07:27.078Z,94.80
2019-04-06T22:09:55.849Z,95.10
2019-04-06T22:12:24.246Z,95.40
2019-04-06T22:14:52.663Z,95.20
2019-04-06T22:17:21.108Z,95.00
2019-04-06T22:19:49.569Z,95.50
2019-04-06T22:22:18.045Z,95.70
2019-04-06T22:24:46.495Z,95.70
2019-04-06T22:27:15.918Z,95.60
2019-04-06T22:29:44.475Z,95.60
2019-04-06T22:32:13.076Z,95.70
2019-04-06T22:34:41.963Z,95.90
2019-04-06T22:37:11.019Z,96.20
2019-04-06T22:39:39.436Z,96.30
2019-04-06T22:42:07.843Z,96.20
2019-04-06T22:44:36.267Z,96.20
2019-04-06T22:47:05.145Z,96.40
2019-04-06T22:49:33.850Z,96.40
2019-04-06T22:52:02.472Z,96.50
2019-04-06T22:54:30.887Z,96.40
2019-04-06T22:56:59.871Z,96.40
2019-04-06T22:59:28.886Z,96.50
2019-04-06T23:01:57.379Z,96.50
2019-04-06T23:04:48.659Z,96.80
2019-04-06T23:07:16.998Z,97.00
2019-04-06T23:09:45.473Z,97.30
2019-04-06T23:12:14.563Z,97.70
2019-04-06T23:14:43.124Z,97.50
2019-04-06T23:17:11.869Z,96.90
2019-04-06T23:19:40.453Z,96.70
2019-04-06T23:22:09.069Z,97.10
2019-04-06T23:24:37.703Z,97.80
2019-04-06T23:27:06.873Z,97.40
2019-04-06T23:29:36.339Z,97.20
2019-04-06T23:32:05.377Z,97.30
2019-04-06T23:34:34.114Z,97.30
2019-04-06T23:37:02.619Z,97.10
2019-04-06T23:39:31.048Z,97.60
2019-04-06T23:42:00.091Z,97.60
2019-04-06T23:44:28.651Z,97.30
2019-04-06T23:46:57.620Z,97.30
2019-04-06T23:49:26.934Z,97.00
2019-04-06T23:51:56.048Z,97.00
2019-04-06T23:54:25.203Z,97.20
2019-04-06T23:56:54.029Z,97.40
2019-04-06T23:59:22.562Z,97.40
